Time;durP1;ratioP1;P1;durP2;ratioP2;P2;SDS_P1;SDS_P2;PMS_P1;PMS_P2;Temp;Humidity;BMP_temperature;BMP_pressure;BME280_temperature;BME280_humidity;BME280_pressure;Samples;Min_cycle;Max_cycle;Signal;HPM_P1;HPM_P2
2022/09/12 00:01:15;;;;;;;9.17;8.30;;;12.90;99.90;;;;;;4971935;28;20669;-83
2022/09/12 00:03:41;;;;;;;8.17;7.57;;;12.90;99.90;;;;;;4971360;28;20626;-83
2022/09/12 00:06:11;;;;;;;8.40;7.80;;;12.90;99.90;;;;;;4978789;28;20636;-83
2022/09/12 00:08:39;;;;;;;8.80;8.00;;;12.90;99.90;;;;;;4973259;28;20657;-83
2022/09/12 00:11:08;;;;;;;9.20;8.40;;;12.90;99.90;;;;;;4970769;28;20700;-83
2022/09/12 00:13:35;;;;;;;9.50;8.80;;;12.90;99.90;;;;;;4975149;28;20645;-83
2022/09/12 00:16:03;;;;;;;9.13;8.50;;;12.90;99.90;;;;;;4975339;28;21020;-83
2022/09/12 00:18:31;;;;;;;9.60;8.90;;;12.80;99.90;;;;;;4972330;28;20677;-83
2022/09/12 00:21:02;;;;;;;9.33;8.73;;;12.80;99.90;;;;;;4970087;28;20664;-83
2022/09/12 00:23:29;;;;;;;8.60;8.00;;;12.80;99.90;;;;;;4970128;28;20662;-83
2022/09/12 00:25:57;;;;;;;8.97;8.27;;;12.80;99.90;;;;;;4978625;28;20982;-83
2022/09/12 00:28:24;;;;;;;9.23;8.53;;;12.70;99.90;;;;;;4971638;28;20660;-84
2022/09/12 00:30:51;;;;;;;13.20;9.40;;;12.70;99.90;;;;;;4973493;28;20640;-84
2022/09/12 00:33:18;;;;;;;9.57;8.53;;;12.50;99.90;;;;;;4976462;28;20629;-84
2022/09/12 00:35:46;;;;;;;10.53;9.83;;;12.70;99.90;;;;;;4971176;28;20672;-83
2022/09/12 00:38:13;;;;;;;9.17;8.47;;;12.70;99.90;;;;;;4973483;28;20696;-83
2022/09/12 00:40:40;;;;;;;8.83;8.27;;;12.70;99.90;;;;;;4980428;28;21031;-83
2022/09/12 00:43:13;;;;;;;10.83;9.90;;;12.60;99.90;;;;;;4971948;28;20633;-83
2022/09/12 00:45:41;;;;;;;8.63;8.13;;;12.60;99.90;;;;;;4970086;28;21263;-83
2022/09/12 00:48:18;;;;;;;9.27;8.67;;;12.20;99.90;;;;;;4971215;28;20753;-83
2022/09/12 00:50:45;;;;;;;9.87;9.07;;;12.30;99.90;;;;;;4973874;28;20643;-83
2022/09/12 00:53:12;;;;;;;11.37;10.47;;;12.60;99.90;;;;;;4972004;28;20652;-83
2022/09/12 00:55:43;;;;;;;10.20;9.30;;;12.50;99.90;;;;;;4974004;28;20675;-82
2022/09/12 00:58:17;;;;;;;9.40;8.80;;;12.50;99.90;;;;;;4977188;28;20663;-83
2022/09/12 01:00:44;;;;;;;10.60;9.80;;;12.20;99.90;;;;;;4975382;28;20732;-83
2022/09/12 01:03:13;;;;;;;9.43;8.83;;;12.50;99.90;;;;;;4971275;28;20633;-83
2022/09/12 01:05:44;;;;;;;9.03;8.33;;;12.30;99.90;;;;;;4975663;28;20645;-83
2022/09/12 01:08:11;;;;;;;9.83;8.93;;;12.40;99.90;;;;;;4969611;28;21207;-83
2022/09/12 01:10:41;;;;;;;10.07;9.17;;;12.50;99.90;;;;;;4971447;28;20844;-83
2022/09/12 01:13:10;;;;;;;10.87;10.17;;;12.00;99.90;;;;;;4971930;28;20625;-83
2022/09/12 01:15:39;;;;;;;9.90;9.10;;;12.00;99.90;;;;;;4975944;28;20633;-82
2022/09/12 01:18:16;;;;;;;9.97;9.20;;;12.40;99.90;;;;;;4977197;28;20648;-83
2022/09/12 01:20:56;;;;;;;11.83;10.93;;;12.40;99.90;;;;;;4983662;28;20667;-83
2022/09/12 01:24:02;;;;;;;11.37;10.53;;;12.40;99.90;;;;;;4972149;28;20629;-82
2022/09/12 01:26:59;;;;;;;10.67;9.87;;;12.40;99.90;;;;;;4976352;28;20992;-83
2022/09/12 01:29:46;;;;;;;10.20;9.50;;;12.20;99.90;;;;;;4973833;28;20625;-84
2022/09/12 01:32:24;;;;;;;10.20;9.50;;;12.40;99.90;;;;;;4979957;28;20633;-83
2022/09/12 01:34:57;;;;;;;10.77;10.17;;;12.30;99.90;;;;;;4981055;28;21206;-83
2022/09/12 01:37:33;;;;;;;11.47;10.53;;;12.30;99.90;;;;;;4978772;28;20653;-83
2022/09/12 01:40:04;;;;;;;12.60;10.83;;;12.00;99.90;;;;;;4976357;28;20668;-83
2022/09/12 01:42:39;;;;;;;11.57;10.77;;;12.20;99.90;;;;;;4975382;28;20640;-84
2022/09/12 01:45:13;;;;;;;11.47;10.60;;;12.20;99.90;;;;;;4974174;28;20645;-84
2022/09/12 01:47:44;;;;;;;10.50;9.70;;;12.40;99.90;;;;;;4979685;28;20649;-84
2022/09/12 01:50:17;;;;;;;11.13;10.10;;;12.20;99.90;;;;;;4972673;28;20641;-83
2022/09/12 01:52:50;;;;;;;11.27;10.37;;;12.00;99.90;;;;;;4975784;28;20632;-83
2022/09/12 01:55:21;;;;;;;12.17;11.27;;;11.80;99.90;;;;;;4974152;28;20633;-83
2022/09/12 01:57:52;;;;;;;11.77;10.57;;;12.10;99.90;;;;;;4979113;28;20714;-83
2022/09/12 02:00:20;;;;;;;10.40;9.50;;;11.70;99.90;;;;;;4982329;28;20624;-83
2022/09/12 02:02:54;;;;;;;11.13;10.30;;;11.70;99.90;;;;;;4980462;28;20632;-83
2022/09/12 02:05:28;;;;;;;12.23;11.13;;;11.70;99.90;;;;;;4972921;28;20625;-83
2022/09/12 02:08:02;;;;;;;11.40;10.50;;;11.80;99.90;;;;;;4974287;28;21226;-83
2022/09/12 02:10:32;;;;;;;11.57;10.67;;;12.00;99.90;;;;;;4971982;28;20645;-82
2022/09/12 02:13:03;;;;;;;11.87;11.00;;;11.60;99.90;;;;;;4979688;28;20992;-82
2022/09/12 02:15:35;;;;;;;12.33;11.23;;;12.00;99.90;;;;;;4974268;28;20629;-83
2022/09/12 02:18:05;;;;;;;12.07;11.17;;;11.70;99.90;;;;;;4976191;28;20657;-83
2022/09/12 02:20:35;;;;;;;11.83;10.80;;;12.10;99.90;;;;;;4974380;28;20680;-83
2022/09/12 02:23:07;;;;;;;12.23;11.30;;;12.00;99.90;;;;;;4973180;28;20643;-84
2022/09/12 02:25:37;;;;;;;11.77;10.97;;;11.60;99.90;;;;;;4973736;28;21018;-83
2022/09/12 02:28:09;;;;;;;12.33;11.40;;;11.70;99.90;;;;;;4984857;28;20667;-83
2022/09/12 02:30:43;;;;;;;12.77;11.67;;;11.80;99.90;;;;;;4972065;28;21444;-83
2022/09/12 02:33:20;;;;;;;11.27;10.50;;;12.00;99.90;;;;;;4972906;28;21274;-83
2022/09/12 02:35:53;;;;;;;11.50;10.67;;;11.90;99.90;;;;;;4978022;28;20749;-83
2022/09/12 02:38:27;;;;;;;12.13;11.17;;;11.40;99.90;;;;;;4979105;28;21001;-83
2022/09/12 02:40:54;;;;;;;11.53;10.70;;;11.50;99.90;;;;;;4973187;28;21227;-83
2022/09/12 02:43:21;;;;;;;13.07;12.07;;;11.50;99.90;;;;;;4973358;28;20629;-83
2022/09/12 02:45:48;;;;;;;11.70;10.80;;;12.00;99.90;;;;;;4973426;28;20653;-84
2022/09/12 02:48:21;;;;;;;12.10;11.20;;;11.60;99.90;;;;;;4968301;28;20669;-82
2022/09/12 02:50:48;;;;;;;11.90;11.00;;;11.80;99.90;;;;;;4968581;28;20660;-84
2022/09/12 02:53:15;;;;;;;12.17;11.27;;;11.80;99.90;;;;;;4975048;28;20645;-84
2022/09/12 02:55:43;;;;;;;12.87;11.87;;;11.50;99.90;;;;;;4971784;28;21011;-84
2022/09/12 02:58:12;;;;;;;12.53;11.63;;;11.50;99.90;;;;;;4970480;28;20680;-83
2022/09/12 03:00:46;;;;;;;12.43;11.40;;;11.70;99.90;;;;;;4974163;28;21171;-83
2022/09/12 03:03:38;;;;;;;12.70;11.70;;;11.60;99.90;;;;;;4968183;28;20664;-84
2022/09/12 03:06:15;;;;;;;12.53;11.70;;;11.30;99.90;;;;;;4982918;28;20661;-83
2022/09/12 03:08:59;;;;;;;12.27;11.27;;;11.50;99.90;;;;;;4974017;28;20649;-83
2022/09/12 03:11:49;;;;;;;11.80;11.00;;;11.30;99.90;;;;;;4969241;28;21152;-83
2022/09/12 03:14:31;;;;;;;12.43;11.00;;;11.70;99.90;;;;;;4967989;28;20645;-83
2022/09/12 03:17:07;;;;;;;12.20;11.20;;;11.70;99.90;;;;;;4973547;28;20711;-83
2022/09/12 03:19:46;;;;;;;12.23;11.40;;;11.30;99.90;;;;;;4976141;28;20668;-83
2022/09/12 03:22:20;;;;;;;13.50;12.40;;;11.70;99.90;;;;;;4969769;28;20675;-83
2022/09/12 03:24:53;;;;;;;13.90;12.80;;;11.40;99.90;;;;;;4974798;28;20651;-83
2022/09/12 03:27:27;;;;;;;19.23;17.83;;;11.50;99.90;;;;;;4980307;28;20661;-83
2022/09/12 03:29:55;;;;;;;23.03;21.20;;;11.60;99.90;;;;;;4972551;28;20989;-83
2022/09/12 03:32:40;;;;;;;22.43;20.53;;;11.60;99.90;;;;;;4973336;28;21211;-83
2022/09/12 03:35:09;;;;;;;23.33;21.63;;;11.30;99.90;;;;;;4972408;28;20659;-83
2022/09/12 03:37:36;;;;;;;23.27;21.43;;;11.60;99.90;;;;;;4971507;28;20670;-83
2022/09/12 03:40:03;;;;;;;24.67;22.57;;;11.50;99.90;;;;;;4980066;28;20638;-83
2022/09/12 03:42:30;;;;;;;24.33;22.43;;;11.40;99.90;;;;;;4972223;28;20687;-83
2022/09/12 03:44:57;;;;;;;27.80;25.57;;;11.40;99.90;;;;;;4972008;28;21052;-83
2022/09/12 03:47:23;;;;;;;29.20;26.90;;;10.90;99.90;;;;;;4974665;28;20660;-83
2022/09/12 03:49:51;;;;;;;26.03;24.13;;;11.50;99.90;;;;;;4968630;28;20656;-83
2022/09/12 03:52:19;;;;;;;26.70;24.60;;;11.20;99.90;;;;;;4973943;28;21211;-84
2022/09/12 03:54:46;;;;;;;28.00;25.83;;;11.00;99.90;;;;;;4972799;28;20615;-84
2022/09/12 03:57:13;;;;;;;27.43;25.43;;;11.20;99.90;;;;;;4973229;28;21198;-83
2022/09/12 03:59:39;;;;;;;27.70;25.60;;;11.40;99.90;;;;;;4978593;28;20632;-83
2022/09/12 04:02:06;;;;;;;26.23;24.10;;;10.90;99.90;;;;;;4974275;28;20676;-83
2022/09/12 04:04:33;;;;;;;24.80;22.67;;;11.60;99.90;;;;;;4970246;28;21175;-84
2022/09/12 04:07:00;;;;;;;25.97;23.80;;;11.10;99.90;;;;;;4974307;28;21019;-83
2022/09/12 04:09:28;;;;;;;24.33;22.40;;;10.90;99.90;;;;;;4975935;28;20656;-84
2022/09/12 04:11:54;;;;;;;23.50;21.40;;;11.10;99.90;;;;;;4974449;28;20632;-84
2022/09/12 04:14:21;;;;;;;23.63;21.70;;;11.20;99.90;;;;;;4972321;28;20656;-83
2022/09/12 04:16:48;;;;;;;22.23;20.53;;;11.30;99.90;;;;;;4973701;28;20707;-83
2022/09/12 04:19:15;;;;;;;21.30;19.80;;;11.10;99.90;;;;;;4970295;28;21016;-83
2022/09/12 04:21:41;;;;;;;21.30;19.70;;;11.30;99.90;;;;;;4971142;28;20650;-83
2022/09/12 04:24:08;;;;;;;20.70;19.00;;;11.00;99.90;;;;;;4972977;28;20640;-84
2022/09/12 04:26:36;;;;;;;20.17;18.77;;;11.20;99.90;;;;;;4973279;28;21179;-84
2022/09/12 04:29:03;;;;;;;21.53;19.53;;;11.30;99.90;;;;;;4975686;28;20628;-84
2022/09/12 04:31:30;;;;;;;20.47;18.90;;;11.10;99.90;;;;;;4970041;28;20637;-84
2022/09/12 04:33:58;;;;;;;20.40;18.60;;;10.80;99.90;;;;;;4973506;28;20773;-83
2022/09/12 04:36:26;;;;;;;19.37;17.77;;;10.70;99.90;;;;;;4975020;28;20664;-83
2022/09/12 04:38:53;;;;;;;19.17;17.77;;;10.80;99.90;;;;;;4974381;28;20656;-83
2022/09/12 04:41:22;;;;;;;18.23;16.73;;;10.90;99.90;;;;;;4971565;28;20665;-85
2022/09/12 04:43:54;;;;;;;17.03;15.73;;;11.00;99.90;;;;;;4975708;28;20621;-85
2022/09/12 04:46:21;;;;;;;18.53;16.97;;;10.90;99.90;;;;;;4971930;28;20626;-84
2022/09/12 04:48:48;;;;;;;16.10;14.93;;;10.70;99.90;;;;;;4972124;28;20664;-85
2022/09/12 04:51:17;;;;;;;16.27;15.17;;;11.10;99.90;;;;;;4974477;28;21025;-84
2022/09/12 04:53:48;;;;;;;16.40;15.13;;;10.70;99.90;;;;;;4973443;28;20648;-84
2022/09/12 04:56:15;;;;;;;17.67;16.27;;;10.90;99.90;;;;;;4973081;28;20649;-85
2022/09/12 04:58:42;;;;;;;17.27;15.87;;;11.20;99.90;;;;;;4977905;28;20664;-84
2022/09/12 05:01:12;;;;;;;15.00;13.90;;;10.70;99.90;;;;;;4975856;28;20653;-84
2022/09/12 05:03:42;;;;;;;15.30;14.17;;;11.00;99.90;;;;;;4980136;28;20629;-82
2022/09/12 05:06:10;;;;;;;16.00;14.87;;;10.80;99.90;;;;;;4980790;28;20638;-82
2022/09/12 05:08:37;;;;;;;15.57;14.43;;;10.70;99.90;;;;;;4974388;28;20677;-83
2022/09/12 05:11:06;;;;;;;15.17;14.17;;;10.60;99.90;;;;;;4974600;28;20649;-82
2022/09/12 05:13:33;;;;;;;15.13;14.03;;;10.90;99.90;;;;;;4970570;28;20621;-82
2022/09/12 05:16:02;;;;;;;14.93;13.70;;;10.50;99.90;;;;;;4973768;28;21040;-82
2022/09/12 05:18:31;;;;;;;14.70;13.50;;;11.00;99.90;;;;;;4978137;28;20667;-82
2022/09/12 05:20:59;;;;;;;15.10;13.90;;;11.30;99.90;;;;;;4980318;28;20668;-82
2022/09/12 05:23:26;;;;;;;15.63;14.13;;;11.00;99.90;;;;;;4976512;28;20728;-83
2022/09/12 05:25:56;;;;;;;18.23;16.70;;;11.20;99.90;;;;;;4970474;28;20637;-84
2022/09/12 05:28:23;;;;;;;17.10;15.50;;;11.50;99.90;;;;;;4973413;28;21175;-84
2022/09/12 05:31:00;;;;;;;20.00;18.03;;;11.10;99.90;;;;;;4977669;28;21206;-84
2022/09/12 05:33:27;;;;;;;19.70;18.20;;;11.00;99.90;;;;;;4973707;28;20639;-83
2022/09/12 05:35:55;;;;;;;18.30;16.50;;;11.00;99.90;;;;;;4974957;28;20629;-84
2022/09/12 05:38:23;;;;;;;18.67;17.17;;;11.30;99.90;;;;;;4977415;28;20679;-84
2022/09/12 05:40:49;;;;;;;18.23;16.77;;;11.30;99.90;;;;;;4977344;28;20637;-84
2022/09/12 05:43:16;;;;;;;17.33;15.87;;;11.00;99.90;;;;;;4981604;28;20676;-85
2022/09/12 05:45:43;;;;;;;17.37;15.60;;;11.50;99.90;;;;;;4979079;28;20628;-85
2022/09/12 05:48:10;;;;;;;18.30;16.80;;;10.90;99.90;;;;;;4976674;28;20652;-85
2022/09/12 05:50:36;;;;;;;17.57;15.97;;;10.80;99.90;;;;;;4978243;28;22200;-85
2022/09/12 05:53:04;;;;;;;19.07;17.40;;;11.20;99.90;;;;;;4977876;28;20656;-85
2022/09/12 05:55:32;;;;;;;17.90;16.40;;;10.90;99.90;;;;;;4975499;28;20637;-85
2022/09/12 05:57:58;;;;;;;19.20;17.37;;;10.90;99.90;;;;;;4974102;28;21324;-85
2022/09/12 06:00:25;;;;;;;17.97;16.67;;;11.20;99.90;;;;;;4972477;28;21037;-84
2022/09/12 06:02:53;;;;;;;56.00;20.50;;;11.10;99.90;;;;;;4979016;28;20675;-85
2022/09/12 06:05:19;;;;;;;19.43;17.63;;;11.30;99.90;;;;;;4979021;28;20632;-85
2022/09/12 06:07:47;;;;;;;34.97;18.13;;;11.40;99.90;;;;;;4980726;28;20656;-85
2022/09/12 06:10:16;;;;;;;31.43;18.47;;;11.00;99.90;;;;;;4977691;28;21116;-85
2022/09/12 06:12:43;;;;;;;22.53;17.77;;;11.30;99.90;;;;;;4979320;28;20645;-86
2022/09/12 06:15:10;;;;;;;21.73;19.93;;;11.50;99.90;;;;;;4978625;28;20728;-86
2022/09/12 06:17:37;;;;;;;21.47;19.63;;;11.80;99.90;;;;;;4979443;28;20657;-85
2022/09/12 06:20:04;;;;;;;21.53;19.83;;;11.70;99.90;;;;;;4973925;28;20644;-85
2022/09/12 06:22:31;;;;;;;21.80;19.70;;;11.90;99.90;;;;;;4978301;28;21267;-84
2022/09/12 06:24:57;;;;;;;19.17;17.47;;;11.90;99.90;;;;;;4976277;28;20637;-84
2022/09/12 06:27:25;;;;;;;21.17;19.27;;;12.00;99.90;;;;;;4978254;28;20668;-84
2022/09/12 06:29:52;;;;;;;19.97;17.90;;;12.10;99.90;;;;;;4973487;28;20641;-86
2022/09/12 06:32:19;;;;;;;23.77;17.23;;;12.10;99.90;;;;;;4976515;28;20629;-85
2022/09/12 06:34:47;;;;;;;16.73;15.33;;;12.10;99.90;;;;;;4975456;28;21151;-85
2022/09/12 06:37:14;;;;;;;15.43;14.33;;;12.20;99.90;;;;;;4971586;28;20661;-85
2022/09/12 06:39:41;;;;;;;16.47;15.27;;;12.10;99.90;;;;;;4975356;28;21142;-85
2022/09/12 06:42:07;;;;;;;15.57;14.47;;;12.30;99.90;;;;;;4975226;28;20665;-85
2022/09/12 06:44:36;;;;;;;17.33;15.73;;;12.10;99.90;;;;;;4975263;28;20644;-85
2022/09/12 06:47:02;;;;;;;13.67;12.53;;;12.50;99.90;;;;;;4975662;28;20711;-85
2022/09/12 06:49:29;;;;;;;13.23;12.13;;;12.20;99.90;;;;;;4979905;28;20661;-85
2022/09/12 06:51:56;;;;;;;14.47;13.47;;;12.40;99.90;;;;;;4978729;28;20635;-85
2022/09/12 06:54:25;;;;;;;14.13;13.13;;;12.50;99.90;;;;;;4971278;28;21226;-84
2022/09/12 06:56:52;;;;;;;15.47;14.00;;;12.60;99.90;;;;;;4974562;28;20677;-83
2022/09/12 06:59:19;;;;;;;13.83;12.80;;;12.70;99.90;;;;;;4971054;28;21431;-84
2022/09/12 07:01:47;;;;;;;14.23;13.23;;;12.80;99.90;;;;;;4975279;28;21047;-84
2022/09/12 07:04:14;;;;;;;15.00;13.40;;;12.90;99.90;;;;;;4976065;28;20641;-83
2022/09/12 07:06:43;;;;;;;13.60;12.70;;;12.70;99.90;;;;;;4972268;28;20664;-83
2022/09/12 07:09:12;;;;;;;13.87;12.87;;;13.00;99.90;;;;;;4971107;28;20661;-84
2022/09/12 07:11:41;;;;;;;13.63;12.60;;;13.20;99.90;;;;;;4979816;28;20639;-84
2022/09/12 07:14:11;;;;;;;12.83;11.87;;;13.10;99.90;;;;;;4972884;28;20633;-84
2022/09/12 07:16:38;;;;;;;13.77;12.73;;;13.30;99.90;;;;;;4971766;28;20679;-84
2022/09/12 07:19:07;;;;;;;14.00;12.70;;;13.30;99.90;;;;;;4972422;28;20648;-84
2022/09/12 07:21:38;;;;;;;13.43;12.33;;;13.50;99.90;;;;;;4971650;28;20653;-84
2022/09/12 07:24:10;;;;;;;13.23;12.23;;;13.60;99.90;;;;;;4976726;28;20754;-84
2022/09/12 07:26:37;;;;;;;12.70;11.70;;;13.70;99.90;;;;;;4970929;28;20645;-85
2022/09/12 07:29:05;;;;;;;13.70;12.70;;;13.80;99.90;;;;;;4971550;28;21155;-84
2022/09/12 07:31:32;;;;;;;13.50;12.50;;;13.90;99.90;;;;;;4977975;28;20641;-84
2022/09/12 07:33:58;;;;;;;13.70;12.70;;;14.00;99.90;;;;;;4975095;28;20658;-84
2022/09/12 07:36:27;;;;;;;12.60;11.50;;;14.00;99.90;;;;;;4971095;28;20648;-84
2022/09/12 07:38:55;;;;;;;11.90;11.07;;;14.30;99.90;;;;;;4972434;28;21184;-84
2022/09/12 07:41:24;;;;;;;13.03;11.83;;;14.40;99.90;;;;;;4973884;28;20727;-84
2022/09/12 07:43:52;;;;;;;11.47;10.57;;;14.60;99.90;;;;;;4973252;28;20672;-83
2022/09/12 07:46:19;;;;;;;11.40;10.60;;;14.70;99.90;;;;;;4974013;28;20677;-82
2022/09/12 07:48:50;;;;;;;12.50;11.40;;;14.90;99.90;;;;;;4980551;28;20999;-83
2022/09/12 07:51:17;;;;;;;12.40;11.30;;;15.00;99.90;;;;;;4975653;28;20724;-83
2022/09/12 07:53:46;;;;;;;12.37;11.47;;;15.20;99.90;;;;;;4972691;28;20736;-83
2022/09/12 07:56:13;;;;;;;11.67;10.77;;;15.30;99.90;;;;;;4978144;28;20636;-83
2022/09/12 07:58:41;;;;;;;10.80;10.00;;;15.30;99.90;;;;;;4974818;28;20740;-83
2022/09/12 08:01:12;;;;;;;12.40;11.30;;;15.40;99.90;;;;;;4974501;28;20660;-82
2022/09/12 08:03:40;;;;;;;11.10;9.97;;;15.50;99.90;;;;;;4970267;28;20748;-83
2022/09/12 08:06:08;;;;;;;10.00;9.20;;;15.60;99.90;;;;;;4968624;28;21215;-82
2022/09/12 08:08:35;;;;;;;10.47;9.67;;;15.70;99.90;;;;;;4973346;28;20640;-82
2022/09/12 08:11:05;;;;;;;10.93;10.00;;;15.90;99.90;;;;;;4970999;28;20616;-82
2022/09/12 08:13:34;;;;;;;9.83;9.13;;;16.00;99.90;;;;;;4974729;28;20984;-82
2022/09/12 08:16:02;;;;;;;9.87;9.17;;;16.10;99.90;;;;;;4966367;28;20700;-82
2022/09/12 08:18:31;;;;;;;10.17;9.37;;;16.20;99.90;;;;;;4970957;28;20699;-82
2022/09/12 08:20:58;;;;;;;9.43;8.53;;;16.30;99.90;;;;;;4972585;28;20649;-82
2022/09/12 08:23:28;;;;;;;8.67;8.07;;;16.40;99.90;;;;;;4972205;28;20709;-82
2022/09/12 08:25:56;;;;;;;9.57;8.77;;;16.50;99.90;;;;;;4976413;28;20744;-83
2022/09/12 08:28:25;;;;;;;9.90;9.07;;;16.70;99.90;;;;;;4977109;28;20637;-83
2022/09/12 08:30:52;;;;;;;8.47;7.90;;;16.80;99.90;;;;;;4982612;28;20625;-82
2022/09/12 08:33:19;;;;;;;7.00;6.50;;;17.00;99.90;;;;;;4977660;28;20724;-83
2022/09/12 08:35:45;;;;;;;8.13;7.63;;;17.10;99.90;;;;;;4979718;28;20663;-83
2022/09/12 08:38:12;;;;;;;9.30;8.60;;;17.30;99.90;;;;;;4974151;28;20640;-82
2022/09/12 08:40:49;;;;;;;7.77;7.07;;;17.30;99.90;;;;;;4979328;28;20628;-82
2022/09/12 08:43:33;;;;;;;8.00;7.40;;;17.50;99.90;;;;;;4971591;28;20675;-82
2022/09/12 08:46:05;;;;;;;6.50;6.10;;;17.60;99.90;;;;;;4975496;28;20670;-82
2022/09/12 08:48:32;;;;;;;7.00;6.50;;;17.70;99.90;;;;;;4974653;28;20613;-82
2022/09/12 08:51:00;;;;;;;6.60;5.77;;;17.90;99.90;;;;;;4977819;28;20633;-82
2022/09/12 08:53:29;;;;;;;8.40;6.10;;;18.00;99.90;;;;;;4977097;28;20776;-82
2022/09/12 08:55:59;;;;;;;6.40;5.97;;;18.10;99.90;;;;;;4975743;28;20653;-82
2022/09/12 08:58:28;;;;;;;6.03;5.60;;;18.10;99.90;;;;;;4976216;28;20716;-82
2022/09/12 09:01:07;;;;;;;5.20;4.80;;;18.30;99.90;;;;;;4975753;28;20629;-82
2022/09/12 09:04:22;;;;;;;4.53;4.07;;;18.40;99.90;;;;;;4974465;28;21165;-83
2022/09/12 09:07:20;;;;;;;4.30;4.00;;;18.60;99.90;;;;;;4974945;28;20701;-83
2022/09/12 09:10:06;;;;;;;5.07;4.67;;;18.70;99.90;;;;;;4974735;28;20613;-83
2022/09/12 09:12:42;;;;;;;5.93;4.43;;;18.80;99.90;;;;;;4978205;28;20744;-82
2022/09/12 09:15:23;;;;;;;3.40;3.20;;;18.90;99.90;;;;;;4977681;28;20664;-82
2022/09/12 09:17:55;;;;;;;3.40;3.10;;;19.00;99.90;;;;;;4973900;28;20628;-82
2022/09/12 09:20:28;;;;;;;3.43;3.13;;;19.10;99.90;;;;;;4975432;28;20645;-82
2022/09/12 09:23:00;;;;;;;3.70;3.43;;;19.30;99.90;;;;;;4977169;28;20665;-82
2022/09/12 09:25:40;;;;;;;3.73;2.97;;;19.40;99.90;;;;;;4977067;28;21114;-82
2022/09/12 09:28:15;;;;;;;3.53;2.50;;;19.50;99.90;;;;;;4982302;28;20641;-82
2022/09/12 09:30:44;;;;;;;3.73;2.77;;;19.60;99.90;;;;;;4975244;28;20629;-83
2022/09/12 09:33:19;;;;;;;3.17;2.87;;;19.70;99.90;;;;;;4970446;28;20664;-82
2022/09/12 09:35:48;;;;;;;4.57;3.10;;;19.80;99.90;;;;;;4974115;28;20656;-82
2022/09/12 09:38:24;;;;;;;3.50;3.20;;;19.90;99.90;;;;;;4976679;28;20629;-82
2022/09/12 09:41:06;;;;;;;3.40;3.20;;;20.00;99.90;;;;;;4974497;28;21002;-82
2022/09/12 09:43:32;;;;;;;3.30;2.90;;;20.10;99.90;;;;;;4973374;28;20680;-82
2022/09/12 09:46:01;;;;;;;4.20;2.77;;;20.20;99.90;;;;;;4976170;28;20660;-82
2022/09/12 09:48:30;;;;;;;2.77;2.67;;;20.40;99.90;;;;;;4975479;28;20636;-83
2022/09/12 09:51:00;;;;;;;2.70;2.60;;;20.50;99.90;;;;;;4976208;28;20647;-83
2022/09/12 09:53:34;;;;;;;3.03;2.53;;;20.60;99.90;;;;;;4976517;28;20621;-83
2022/09/12 09:56:05;;;;;;;2.40;2.23;;;20.70;99.90;;;;;;4973701;28;20656;-83
2022/09/12 09:58:33;;;;;;;3.43;2.70;;;20.90;99.90;;;;;;4973093;28;20628;-83
2022/09/12 10:01:03;;;;;;;3.00;2.80;;;21.00;99.90;;;;;;4977988;28;20625;-82
2022/09/12 10:03:32;;;;;;;3.17;2.97;;;21.20;99.90;;;;;;4973537;28;20669;-82
2022/09/12 10:06:01;;;;;;;3.23;2.50;;;21.50;99.90;;;;;;4980048;28;20660;-83
2022/09/12 10:08:29;;;;;;;2.93;2.70;;;21.60;99.90;;;;;;4976031;28;20633;-82
2022/09/12 10:11:00;;;;;;;3.30;2.73;;;21.80;99.90;;;;;;4974914;28;20675;-83
2022/09/12 10:13:40;;;;;;;2.83;2.67;;;22.00;99.90;;;;;;4976583;28;20649;-83
2022/09/12 10:16:20;;;;;;;2.70;2.50;;;22.20;99.90;;;;;;4975074;28;20649;-83
2022/09/12 10:18:49;;;;;;;2.23;2.13;;;22.40;99.90;;;;;;4973049;28;20683;-83
2022/09/12 10:21:31;;;;;;;2.20;2.10;;;22.60;99.90;;;;;;4975471;28;20637;-82
2022/09/12 10:24:02;;;;;;;1.83;1.70;;;22.90;95.50;;;;;;4974361;28;20667;-83
2022/09/12 10:26:34;;;;;;;2.50;2.13;;;23.20;92.80;;;;;;4972518;28;20657;-82
2022/09/12 10:29:09;;;;;;;3.17;2.17;;;23.40;92.80;;;;;;4973138;28;21044;-83
2022/09/12 10:31:44;;;;;;;2.17;2.00;;;23.80;93.20;;;;;;4976720;28;20616;-83
2022/09/12 10:34:26;;;;;;;2.50;1.93;;;24.10;91.30;;;;;;4971823;28;20621;-83
2022/09/12 10:36:59;;;;;;;1.93;1.83;;;24.50;90.50;;;;;;4974043;28;20661;-82
2022/09/12 10:39:26;;;;;;;1.67;1.57;;;24.70;84.10;;;;;;4975219;28;20692;-83
2022/09/12 10:41:52;;;;;;;1.80;1.70;;;25.10;80.70;;;;;;4974368;28;21293;-83
2022/09/12 10:44:26;;;;;;;1.93;1.83;;;25.40;77.50;;;;;;4973133;28;20684;-83
2022/09/12 10:46:54;;;;;;;3.63;1.60;;;25.50;76.60;;;;;;4972571;28;20657;-83
2022/09/12 10:49:27;;;;;;;1.90;1.80;;;25.70;68.30;;;;;;4978998;28;20665;-83
2022/09/12 10:51:55;;;;;;;2.00;1.90;;;26.00;70.40;;;;;;4974036;28;20637;-83
2022/09/12 10:54:24;;;;;;;1.90;1.80;;;26.40;72.60;;;;;;4973978;28;20630;-83
2022/09/12 10:57:26;;;;;;;2.17;1.80;;;26.70;71.30;;;;;;4974097;28;20654;-82
2022/09/12 11:00:05;;;;;;;1.80;1.67;;;27.00;68.00;;;;;;4973416;28;21013;-83
2022/09/12 11:02:47;;;;;;;2.00;1.80;;;27.10;65.50;;;;;;4970910;28;21025;-84
2022/09/12 11:05:22;;;;;;;1.70;1.60;;;27.10;65.40;;;;;;4975993;28;20688;-83
2022/09/12 11:07:52;;;;;;;1.90;1.80;;;27.30;63.80;;;;;;4971709;28;20617;-83
2022/09/12 11:10:32;;;;;;;1.50;1.40;;;27.30;65.00;;;;;;4973175;28;20652;-83
2022/09/12 11:13:13;;;;;;;1.60;1.50;;;27.00;62.70;;;;;;4973812;28;20628;-84
2022/09/12 11:15:59;;;;;;;1.97;1.87;;;27.30;59.40;;;;;;4973990;28;21363;-84
2022/09/12 11:18:42;;;;;;;1.90;1.80;;;27.40;61.90;;;;;;4968502;28;20625;-84
2022/09/12 11:21:21;;;;;;;1.70;1.60;;;27.90;61.70;;;;;;4977426;28;20644;-84
2022/09/12 11:24:15;;;;;;;4.43;1.50;;;27.70;58.50;;;;;;4972146;28;21231;-84
2022/09/12 11:27:03;;;;;;;3.80;1.53;;;27.80;58.10;;;;;;4976586;28;20657;-85
2022/09/12 11:29:46;;;;;;;1.77;1.67;;;28.10;57.90;;;;;;4971818;28;20622;-85
2022/09/12 11:32:37;;;;;;;2.13;1.60;;;28.40;56.30;;;;;;4970282;28;20632;-84
2022/09/12 11:35:16;;;;;;;1.70;1.60;;;28.70;55.50;;;;;;4971691;28;21018;-85
2022/09/12 11:38:14;;;;;;;1.50;1.40;;;28.90;55.10;;;;;;4971606;28;20628;-84
2022/09/12 11:40:46;;;;;;;2.40;1.50;;;29.30;53.90;;;;;;4971794;28;20629;-84
2022/09/12 11:43:23;;;;;;;1.20;1.10;;;29.30;53.20;;;;;;4970301;28;20628;-84
2022/09/12 11:45:51;;;;;;;2.50;1.30;;;29.60;51.40;;;;;;4971774;28;20724;-84
2022/09/12 11:48:29;;;;;;;1.20;1.10;;;30.00;50.90;;;;;;4971172;28;20640;-84
2022/09/12 11:51:00;;;;;;;1.80;1.03;;;29.60;48.10;;;;;;4973705;28;21308;-84
2022/09/12 11:53:33;;;;;;;1.10;1.00;;;30.00;49.20;;;;;;4977645;28;20637;-84
2022/09/12 11:56:05;;;;;;;1.50;1.40;;;30.30;48.60;;;;;;4970332;28;20685;-84
2022/09/12 11:58:32;;;;;;;2.00;1.60;;;30.40;48.10;;;;;;4975289;28;20633;-84
2022/09/12 12:01:11;;;;;;;1.93;1.83;;;30.60;49.20;;;;;;4972821;28;20636;-85
2022/09/12 12:03:42;;;;;;;2.00;1.90;;;30.40;49.00;;;;;;4973396;28;20901;-85
2022/09/12 12:06:18;;;;;;;2.13;1.60;;;30.50;48.20;;;;;;4971069;28;21306;-85
2022/09/12 12:08:47;;;;;;;1.43;1.33;;;30.40;47.70;;;;;;4974915;28;20621;-84
2022/09/12 12:11:15;;;;;;;1.83;1.73;;;30.80;48.80;;;;;;4967807;28;20645;-85
2022/09/12 12:13:49;;;;;;;1.30;1.20;;;31.20;47.90;;;;;;4975511;28;20628;-84
2022/09/12 12:16:24;;;;;;;1.50;1.40;;;31.60;47.60;;;;;;4969315;28;21156;-83
2022/09/12 12:18:55;;;;;;;1.30;1.20;;;32.00;46.50;;;;;;4972491;28;20977;-84
2022/09/12 12:21:35;;;;;;;2.30;1.40;;;32.00;43.90;;;;;;4971294;28;21026;-84
2022/09/12 12:24:15;;;;;;;3.60;1.40;;;32.40;43.90;;;;;;4975261;28;20686;-85
2022/09/12 12:26:45;;;;;;;1.17;1.07;;;32.60;43.00;;;;;;4978825;28;20772;-84
2022/09/12 12:29:13;;;;;;;1.40;1.30;;;32.50;42.10;;;;;;4961609;28;20657;-84
2022/09/12 12:32:19;;;;;;;1.53;1.10;;;32.70;41.80;;;;;;4961832;28;20656;-84
2022/09/12 12:34:46;;;;;;;1.93;1.20;;;32.50;39.80;;;;;;4968191;28;20989;-84
2022/09/12 12:37:50;;;;;;;1.17;1.03;;;32.70;40.40;;;;;;4971827;28;20631;-83
2022/09/12 12:40:24;;;;;;;1.90;1.70;;;31.80;39.80;;;;;;4968104;28;20624;-84
2022/09/12 12:43:21;;;;;;;1.73;1.40;;;31.90;40.20;;;;;;4973974;28;21222;-84
2022/09/12 12:46:07;;;;;;;1.50;1.23;;;32.20;39.50;;;;;;4970829;28;20684;-82
2022/09/12 12:48:57;;;;;;;1.30;1.10;;;32.50;39.20;;;;;;4974735;28;20620;-85
2022/09/12 12:51:41;;;;;;;1.13;1.00;;;33.20;39.90;;;;;;4974510;28;20652;-85
2022/09/12 12:54:56;;;;;;;1.77;1.10;;;33.70;38.00;;;;;;4976616;28;20728;-85
2022/09/12 12:57:49;;;;;;;3.30;1.10;;;33.60;36.40;;;;;;4973244;28;20643;-85
2022/09/12 13:00:32;;;;;;;1.23;0.90;;;33.50;36.10;;;;;;4958238;28;21111;-84